Time;durP1;ratioP1;P1;durP2;ratioP2;P2;SDS_P1;SDS_P2;PMS_P1;PMS_P2;Temp;Humidity;BMP_temperature;BMP_pressure;BME280_temperature;BME280_humidity;BME280_pressure;Samples;Min_cycle;Max_cycle;Signal;HPM_P1;HPM_P2
2024/03/05 00:00:10;;;;;;;5.60;0.73;;;7.30;99.90;;;;;;5018291;28;20702;-71
2024/03/05 00:02:42;;;;;;;2.88;0.85;;;7.30;99.90;;;;;;5020290;28;20050;-71
2024/03/05 00:05:12;;;;;;;3.47;0.77;;;7.40;99.90;;;;;;5022563;28;20057;-71
2024/03/05 00:07:40;;;;;;;9.15;2.22;;;7.40;99.90;;;;;;5029747;28;20055;-71
2024/03/05 00:10:07;;;;;;;5.97;1.00;;;7.40;99.90;;;;;;5019426;28;20660;-70
2024/03/05 00:12:34;;;;;;;4.32;1.00;;;7.40;99.90;;;;;;5020110;28;20570;-71
2024/03/05 00:15:01;;;;;;;5.95;0.98;;;7.40;99.90;;;;;;5024397;28;20119;-71
2024/03/05 00:17:28;;;;;;;11.57;2.78;;;7.40;99.90;;;;;;5020789;28;20112;-70
2024/03/05 00:19:55;;;;;;;2.25;1.10;;;7.40;99.90;;;;;;5023343;28;20061;-71
2024/03/05 00:22:22;;;;;;;5.63;1.20;;;7.40;99.90;;;;;;5024261;28;20064;-70
2024/03/05 00:24:49;;;;;;;3.83;1.15;;;7.40;99.90;;;;;;5023562;28;20481;-71
2024/03/05 00:27:16;;;;;;;3.47;0.80;;;7.40;99.90;;;;;;5028048;28;20111;-70
2024/03/05 00:29:43;;;;;;;2.70;0.70;;;7.40;99.90;;;;;;5023677;28;20085;-70
2024/03/05 00:32:09;;;;;;;3.67;1.10;;;7.50;99.90;;;;;;5029522;28;20048;-72
2024/03/05 00:34:36;;;;;;;6.10;0.98;;;7.50;99.90;;;;;;5028851;28;20511;-71
2024/03/05 00:37:03;;;;;;;2.17;0.95;;;7.50;99.90;;;;;;5026610;28;20072;-71
2024/03/05 00:39:30;;;;;;;6.45;2.22;;;7.50;99.90;;;;;;5026990;28;20045;-71
2024/03/05 00:41:56;;;;;;;7.45;0.80;;;7.50;99.90;;;;;;5026171;28;20045;-71
2024/03/05 00:44:23;;;;;;;3.92;0.88;;;7.50;99.90;;;;;;5025421;28;20049;-71
2024/03/05 00:46:52;;;;;;;5.07;1.02;;;7.50;99.90;;;;;;5026162;28;20053;-71
2024/03/05 00:49:20;;;;;;;4.47;0.90;;;7.50;99.90;;;;;;5026265;28;20041;-71
2024/03/05 00:51:47;;;;;;;5.20;0.85;;;7.50;99.90;;;;;;5025270;28;20041;-71
2024/03/05 00:54:14;;;;;;;3.13;1.10;;;7.50;99.90;;;;;;5026342;28;20128;-71
2024/03/05 00:56:41;;;;;;;4.38;1.30;;;7.50;99.90;;;;;;5026175;28;20149;-71
2024/03/05 00:59:08;;;;;;;1.45;0.75;;;7.50;99.90;;;;;;5024671;28;20663;-71
2024/03/05 01:01:35;;;;;;;2.50;1.23;;;7.50;99.90;;;;;;5025452;28;20132;-71
2024/03/05 01:04:03;;;;;;;5.63;1.58;;;7.50;99.90;;;;;;5027812;28;20128;-71
2024/03/05 01:06:30;;;;;;;5.10;1.98;;;7.50;99.90;;;;;;5020865;28;20052;-71
2024/03/05 01:08:57;;;;;;;3.15;0.85;;;7.50;99.90;;;;;;5025531;28;20107;-71
2024/03/05 01:11:24;;;;;;;3.30;1.10;;;7.50;99.90;;;;;;5025493;28;20247;-71
2024/03/05 01:13:51;;;;;;;6.00;1.55;;;7.50;99.90;;;;;;5021238;28;20085;-71
2024/03/05 01:16:18;;;;;;;7.43;1.52;;;7.50;99.90;;;;;;5028599;28;20085;-71
2024/03/05 01:18:44;;;;;;;5.40;1.38;;;7.50;99.90;;;;;;5024682;28;20057;-71
2024/03/05 01:21:11;;;;;;;6.28;1.30;;;7.50;99.90;;;;;;5026082;28;20077;-71
2024/03/05 01:23:38;;;;;;;4.93;1.60;;;7.60;99.90;;;;;;5024018;28;20072;-72
2024/03/05 01:26:05;;;;;;;6.43;1.55;;;7.50;99.90;;;;;;5025703;28;20103;-71
2024/03/05 01:28:32;;;;;;;6.75;1.05;;;7.50;99.90;;;;;;5021261;28;20095;-72
2024/03/05 01:30:59;;;;;;;2.42;0.90;;;7.50;99.90;;;;;;5029009;28;20065;-72
2024/03/05 01:33:26;;;;;;;7.00;1.00;;;7.40;99.90;;;;;;5021403;28;20484;-71
2024/03/05 01:35:53;;;;;;;5.22;1.30;;;7.40;99.90;;;;;;5023907;28;20045;-71
2024/03/05 01:38:20;;;;;;;5.47;1.15;;;7.40;99.90;;;;;;5024649;28;20497;-72
2024/03/05 01:40:47;;;;;;;7.93;1.20;;;7.40;99.90;;;;;;5023788;28;20416;-71
2024/03/05 01:43:14;;;;;;;4.32;1.02;;;7.40;99.90;;;;;;5024252;28;20041;-71
2024/03/05 01:45:42;;;;;;;3.35;0.80;;;7.40;99.90;;;;;;5025504;28;20140;-71
2024/03/05 01:48:10;;;;;;;2.78;1.58;;;7.40;99.90;;;;;;5024223;28;20045;-70
2024/03/05 01:50:37;;;;;;;5.88;1.30;;;7.40;99.90;;;;;;5023826;28;20056;-71
2024/03/05 01:53:09;;;;;;;5.85;1.58;;;7.40;99.90;;;;;;5022284;28;20051;-71
2024/03/05 01:55:37;;;;;;;5.60;1.65;;;7.40;99.90;;;;;;5025874;28;20111;-73
2024/03/05 01:58:04;;;;;;;7.45;1.67;;;7.40;99.90;;;;;;5024090;28;20050;-71
2024/03/05 02:00:32;;;;;;;9.10;1.30;;;7.40;99.90;;;;;;5026561;28;20049;-72
2024/03/05 02:02:58;;;;;;;5.22;1.42;;;7.40;99.90;;;;;;5022672;28;20046;-71
2024/03/05 02:05:25;;;;;;;5.13;1.20;;;7.40;99.90;;;;;;5012656;28;20054;-70
2024/03/05 02:07:53;;;;;;;2.88;1.08;;;7.40;99.90;;;;;;5026466;28;20050;-71
2024/03/05 02:10:21;;;;;;;2.75;1.10;;;7.30;99.90;;;;;;5029793;28;20046;-70
2024/03/05 02:12:47;;;;;;;3.20;1.05;;;7.30;99.90;;;;;;5024213;28;20053;-69
2024/03/05 02:15:14;;;;;;;5.43;1.67;;;7.30;99.90;;;;;;5026316;28;20049;-73
2024/03/05 02:17:42;;;;;;;3.40;1.15;;;7.30;99.90;;;;;;5023734;28;20041;-74
2024/03/05 02:20:12;;;;;;;13.25;3.00;;;7.20;99.90;;;;;;5020729;28;20233;-71
2024/03/05 02:22:39;;;;;;;5.45;1.30;;;7.20;99.90;;;;;;5021573;28;20420;-73
2024/03/05 02:25:06;;;;;;;5.53;1.70;;;7.20;99.90;;;;;;5025825;28;20045;-73
2024/03/05 02:27:33;;;;;;;7.35;1.52;;;7.20;99.90;;;;;;5025338;28;20053;-73
2024/03/05 02:30:02;;;;;;;6.25;1.50;;;7.20;99.90;;;;;;5026271;28;20049;-73
2024/03/05 02:32:29;;;;;;;9.10;1.48;;;7.20;99.90;;;;;;5021879;28;20060;-73
2024/03/05 02:34:56;;;;;;;12.50;1.55;;;7.20;99.90;;;;;;5024217;28;20065;-73
2024/03/05 02:37:23;;;;;;;6.45;1.58;;;7.20;99.90;;;;;;5025333;28;20539;-73
2024/03/05 02:39:50;;;;;;;3.40;1.48;;;7.20;99.90;;;;;;5024732;28;20052;-73
2024/03/05 02:42:16;;;;;;;3.33;0.95;;;7.20;99.90;;;;;;5027683;28;20103;-73
2024/03/05 02:44:43;;;;;;;6.20;1.10;;;7.20;99.90;;;;;;5029477;28;20166;-73
2024/03/05 02:47:11;;;;;;;3.00;1.08;;;7.20;99.90;;;;;;5028114;28;20056;-74
2024/03/05 02:49:37;;;;;;;6.85;1.17;;;7.20;99.90;;;;;;5029063;28;20444;-74
2024/03/05 02:52:04;;;;;;;10.25;1.33;;;7.20;99.90;;;;;;5028751;28;20049;-74
2024/03/05 02:54:33;;;;;;;2.92;1.13;;;7.20;99.90;;;;;;5029001;28;20049;-74
2024/03/05 02:57:00;;;;;;;4.13;1.10;;;7.20;99.90;;;;;;5029130;28;20143;-74
2024/03/05 02:59:27;;;;;;;4.20;1.35;;;7.20;99.90;;;;;;5030581;28;20505;-75
2024/03/05 03:01:54;;;;;;;6.10;1.63;;;7.20;99.90;;;;;;5028351;28;20057;-74
2024/03/05 03:04:21;;;;;;;6.10;1.30;;;7.20;99.90;;;;;;5029209;28;20578;-74
2024/03/05 03:06:48;;;;;;;3.85;1.05;;;7.20;99.90;;;;;;5027878;28;20054;-73
2024/03/05 03:09:14;;;;;;;2.95;1.17;;;7.20;99.90;;;;;;5028867;28;20041;-74
2024/03/05 03:11:41;;;;;;;2.85;1.20;;;7.20;99.90;;;;;;5029108;28;20049;-74
2024/03/05 03:14:09;;;;;;;6.45;2.88;;;7.20;99.90;;;;;;5025801;28;20045;-73
2024/03/05 03:16:36;;;;;;;2.85;1.20;;;7.20;99.90;;;;;;5028618;28;20132;-74
2024/03/05 03:19:04;;;;;;;5.75;1.30;;;7.20;99.90;;;;;;5030104;28;20055;-73
2024/03/05 03:21:31;;;;;;;3.42;0.95;;;7.20;99.90;;;;;;5027149;28;20042;-74
2024/03/05 03:23:58;;;;;;;1.73;0.98;;;7.20;99.90;;;;;;5030011;28;20049;-73
2024/03/05 03:26:25;;;;;;;3.25;1.15;;;7.20;99.90;;;;;;5031827;28;20053;-74
2024/03/05 03:28:54;;;;;;;4.40;1.10;;;7.20;99.90;;;;;;5028040;28;20079;-73
2024/03/05 03:31:25;;;;;;;3.13;1.15;;;7.30;99.90;;;;;;5019991;28;20081;-73
2024/03/05 03:33:52;;;;;;;1.08;0.85;;;7.20;99.90;;;;;;5028582;28;20061;-73
2024/03/05 03:36:27;;;;;;;6.05;1.33;;;7.20;99.90;;;;;;5027336;28;20042;-73
2024/03/05 03:38:58;;;;;;;7.85;1.35;;;7.30;99.90;;;;;;5028093;28;20056;-74
2024/03/05 03:41:25;;;;;;;1.77;0.70;;;7.30;99.90;;;;;;5028225;28;20052;-74
2024/03/05 03:43:52;;;;;;;2.40;1.23;;;7.20;99.90;;;;;;5027755;28;20054;-73
2024/03/05 03:46:20;;;;;;;2.65;1.30;;;7.20;99.90;;;;;;5026441;28;20554;-73
2024/03/05 03:48:46;;;;;;;5.30;1.38;;;7.20;99.90;;;;;;5028479;28;20053;-73
2024/03/05 03:51:13;;;;;;;1.80;0.73;;;7.20;99.90;;;;;;5026610;28;20454;-73
2024/03/05 03:53:43;;;;;;;2.28;0.95;;;7.30;99.90;;;;;;5022295;28;20037;-73
2024/03/05 03:56:10;;;;;;;4.82;1.10;;;7.30;99.90;;;;;;5026906;28;20080;-73
2024/03/05 03:58:37;;;;;;;2.88;1.00;;;7.30;99.90;;;;;;5027698;28;20471;-73
2024/03/05 04:01:04;;;;;;;3.75;1.10;;;7.30;99.90;;;;;;5027605;28;20504;-73
2024/03/05 04:03:31;;;;;;;4.47;1.15;;;7.30;99.90;;;;;;5026550;28;20061;-73
2024/03/05 04:05:59;;;;;;;2.60;1.27;;;7.30;99.90;;;;;;5024735;28;20492;-73
2024/03/05 04:08:26;;;;;;;1.60;1.05;;;7.20;99.90;;;;;;5027073;28;20520;-73
2024/03/05 04:10:53;;;;;;;3.13;1.20;;;7.20;99.90;;;;;;5027276;28;20042;-73
2024/03/05 04:13:20;;;;;;;2.95;1.10;;;7.30;99.90;;;;;;5027111;28;20084;-73
2024/03/05 04:15:47;;;;;;;4.18;1.00;;;7.30;99.90;;;;;;5027799;28;20469;-72
2024/03/05 04:18:14;;;;;;;4.40;1.00;;;7.30;99.90;;;;;;5029339;28;20115;-73
2024/03/05 04:20:41;;;;;;;7.22;1.35;;;7.30;99.90;;;;;;5028323;28;20100;-73
2024/03/05 04:23:10;;;;;;;1.40;0.82;;;7.30;99.90;;;;;;5026977;28;20053;-73
2024/03/05 04:25:39;;;;;;;5.50;1.48;;;7.30;99.90;;;;;;5041599;28;20072;-72
2024/03/05 04:28:12;;;;;;;2.25;1.10;;;7.30;99.90;;;;;;5023746;28;20049;-72
2024/03/05 04:30:40;;;;;;;3.20;1.20;;;7.40;99.90;;;;;;5028190;28;20045;-71
2024/03/05 04:33:09;;;;;;;7.53;1.27;;;7.40;99.90;;;;;;5025087;28;20455;-72
2024/03/05 04:35:36;;;;;;;2.22;1.50;;;7.40;99.90;;;;;;5038683;28;20056;-71
2024/03/05 04:38:07;;;;;;;7.45;1.42;;;7.40;99.90;;;;;;5026545;28;20567;-72
2024/03/05 04:40:34;;;;;;;4.88;1.40;;;7.40;99.90;;;;;;5025607;28;20056;-73
2024/03/05 04:43:01;;;;;;;2.55;1.77;;;7.40;99.90;;;;;;5026575;28;20045;-72
2024/03/05 04:45:28;;;;;;;4.78;2.35;;;7.40;99.90;;;;;;5027158;28;20099;-74
2024/03/05 04:47:55;;;;;;;3.33;1.40;;;7.30;99.90;;;;;;5026139;28;20053;-73
2024/03/05 04:50:22;;;;;;;4.90;1.38;;;7.30;99.90;;;;;;5025484;28;20075;-73
2024/03/05 04:52:49;;;;;;;4.60;2.40;;;7.20;99.90;;;;;;5008938;28;20045;-74
2024/03/05 04:55:15;;;;;;;7.68;2.10;;;7.20;99.90;;;;;;5026975;28;20783;-73
2024/03/05 04:57:42;;;;;;;6.03;1.67;;;7.20;99.90;;;;;;5027107;28;20053;-73
2024/03/05 05:00:22;;;;;;;9.30;2.03;;;7.30;99.90;;;;;;5033935;28;20048;-73
2024/03/05 05:02:50;;;;;;;4.35;1.50;;;7.30;99.90;;;;;;5026301;28;20053;-73
2024/03/05 05:05:18;;;;;;;5.80;1.52;;;7.30;99.90;;;;;;5026002;28;20232;-73
2024/03/05 05:07:45;;;;;;;5.93;1.80;;;7.40;99.90;;;;;;5025823;28;20140;-73
2024/03/05 05:10:12;;;;;;;6.97;1.65;;;7.30;99.90;;;;;;5026479;28;20049;-72
2024/03/05 05:12:39;;;;;;;9.98;2.30;;;7.30;99.90;;;;;;5024101;28;20045;-73
2024/03/05 05:15:07;;;;;;;4.18;1.52;;;7.30;99.90;;;;;;5025922;28;20528;-73
2024/03/05 05:17:34;;;;;;;3.92;2.17;;;7.30;99.90;;;;;;5025776;28;20173;-73
2024/03/05 05:20:03;;;;;;;4.68;1.52;;;7.30;99.90;;;;;;5028986;28;20060;-74
2024/03/05 05:22:30;;;;;;;5.30;1.77;;;7.30;99.90;;;;;;5026763;28;20076;-73
2024/03/05 05:24:57;;;;;;;7.45;1.77;;;7.30;99.90;;;;;;5030990;28;20044;-72
2024/03/05 05:27:24;;;;;;;12.32;3.58;;;7.30;99.90;;;;;;5011531;28;20300;-72
2024/03/05 05:29:50;;;;;;;4.72;2.20;;;7.30;99.90;;;;;;5023392;28;20050;-72
2024/03/05 05:32:21;;;;;;;3.88;1.80;;;7.30;99.90;;;;;;5026490;28;20104;-72
2024/03/05 05:34:48;;;;;;;4.20;1.58;;;7.30;99.90;;;;;;5026033;28;20140;-72
2024/03/05 05:37:15;;;;;;;8.95;1.88;;;7.40;99.90;;;;;;5026045;28;20060;-72
2024/03/05 05:39:42;;;;;;;8.18;1.90;;;7.30;99.90;;;;;;5025802;28;20103;-73
2024/03/05 05:42:12;;;;;;;4.55;1.85;;;7.40;99.90;;;;;;5020714;28;20056;-73
2024/03/05 05:44:39;;;;;;;7.32;1.88;;;7.30;99.90;;;;;;5030581;28;20571;-72
2024/03/05 05:47:10;;;;;;;4.28;1.73;;;7.30;99.90;;;;;;5027674;28;20045;-72
2024/03/05 05:49:37;;;;;;;4.32;1.65;;;7.30;99.90;;;;;;5025657;28;20140;-72
2024/03/05 05:52:04;;;;;;;8.82;2.20;;;7.30;99.90;;;;;;5032026;28;20136;-72
2024/03/05 05:54:39;;;;;;;5.05;2.15;;;7.40;99.90;;;;;;5029874;28;20123;-73
2024/03/05 05:57:06;;;;;;;4.35;1.85;;;7.40;99.90;;;;;;5026017;28;20498;-72
2024/03/05 05:59:33;;;;;;;11.95;2.85;;;7.40;99.90;;;;;;5023726;28;20053;-72
2024/03/05 06:02:00;;;;;;;6.60;1.50;;;7.40;99.90;;;;;;5025303;28;20248;-72
2024/03/05 06:04:27;;;;;;;10.05;2.05;;;7.30;99.90;;;;;;5024725;28;20034;-72
2024/03/05 06:06:54;;;;;;;9.85;2.10;;;7.40;99.90;;;;;;5026205;28;20073;-72
2024/03/05 06:09:28;;;;;;;4.03;1.63;;;7.40;99.90;;;;;;5023095;28;20172;-71
2024/03/05 06:11:55;;;;;;;5.05;2.08;;;7.40;99.90;;;;;;5025072;28;20103;-72
2024/03/05 06:14:22;;;;;;;6.32;2.10;;;7.40;99.90;;;;;;5028176;28;20069;-72
2024/03/05 06:16:48;;;;;;;6.68;2.10;;;7.40;99.90;;;;;;5030215;28;20037;-73
2024/03/05 06:19:15;;;;;;;10.35;2.72;;;7.40;99.90;;;;;;5027998;28;20556;-72
2024/03/05 06:21:42;;;;;;;5.95;2.42;;;7.40;99.90;;;;;;5028897;28;20060;-73
2024/03/05 06:24:09;;;;;;;9.35;2.90;;;7.40;99.90;;;;;;5028840;28;20519;-71
2024/03/05 06:26:37;;;;;;;8.48;2.72;;;7.40;99.90;;;;;;5028862;28;20049;-73
2024/03/05 06:29:06;;;;;;;6.80;2.20;;;7.30;99.90;;;;;;5028852;28;20046;-71
2024/03/05 06:31:33;;;;;;;8.23;2.42;;;7.40;99.90;;;;;;5026593;28;20056;-73
2024/03/05 06:34:05;;;;;;;5.90;2.90;;;7.40;99.90;;;;;;5028719;28;20100;-73
2024/03/05 06:36:35;;;;;;;5.53;2.15;;;7.40;99.90;;;;;;5028654;28;20081;-73
2024/03/05 06:39:19;;;;;;;10.48;2.83;;;7.40;99.90;;;;;;5027762;28;20053;-73
2024/03/05 06:41:49;;;;;;;3.30;2.22;;;7.40;99.90;;;;;;5028384;28;20164;-73
2024/03/05 06:44:20;;;;;;;7.70;2.58;;;7.40;99.90;;;;;;5027903;28;20497;-73
2024/03/05 06:46:47;;;;;;;11.68;2.83;;;7.40;99.90;;;;;;5031690;28;20048;-74
2024/03/05 06:49:14;;;;;;;7.68;2.67;;;7.40;99.90;;;;;;5030776;28;20071;-74
2024/03/05 06:51:52;;;;;;;7.47;2.72;;;7.50;99.90;;;;;;5029720;28;20072;-74
2024/03/05 06:57:04;;;;;;;6.05;3.45;;;7.50;99.90;;;;;;5027521;28;20049;-74
2024/03/05 06:59:31;;;;;;;7.68;3.17;;;7.40;99.90;;;;;;5031728;28;20045;-73
2024/03/05 07:01:58;;;;;;;11.52;3.20;;;7.40;99.90;;;;;;5025648;28;20049;-73
2024/03/05 07:04:24;;;;;;;7.93;3.40;;;7.40;99.90;;;;;;5028921;28;20054;-74
2024/03/05 07:06:54;;;;;;;9.52;4.15;;;7.40;99.90;;;;;;5041042;28;20176;-74
2024/03/05 07:09:27;;;;;;;8.75;3.88;;;7.40;99.90;;;;;;5026509;28;20049;-71
2024/03/05 07:11:54;;;;;;;6.25;3.22;;;7.50;99.90;;;;;;5030885;28;20049;-71
2024/03/05 07:14:22;;;;;;;8.00;3.50;;;7.50;99.90;;;;;;5029626;28;20041;-72
2024/03/05 07:16:49;;;;;;;9.77;3.95;;;7.50;99.90;;;;;;5028483;28;20049;-72
2024/03/05 07:19:16;;;;;;;8.15;3.50;;;7.50;99.90;;;;;;5029937;28;20053;-70
2024/03/05 07:21:43;;;;;;;7.18;3.72;;;7.60;99.90;;;;;;5035007;28;20069;-73
2024/03/05 07:24:10;;;;;;;11.63;3.90;;;7.60;99.90;;;;;;5036288;28;20462;-71
2024/03/05 07:26:37;;;;;;;12.75;5.43;;;7.60;99.90;;;;;;5027048;28;20139;-71
2024/03/05 07:29:05;;;;;;;12.93;4.93;;;7.60;99.90;;;;;;5024196;28;20041;-72
2024/03/05 07:31:32;;;;;;;7.60;3.80;;;7.70;99.90;;;;;;5028388;28;20053;-72
2024/03/05 07:33:59;;;;;;;7.95;4.00;;;7.70;99.90;;;;;;5027589;28;20049;-70
2024/03/05 07:36:26;;;;;;;11.90;6.45;;;7.70;99.90;;;;;;5030353;28;20048;-71
2024/03/05 07:38:52;;;;;;;9.02;3.25;;;7.70;99.90;;;;;;5032398;28;20072;-71
2024/03/05 07:41:20;;;;;;;9.38;3.05;;;7.70;99.90;;;;;;5027069;28;20046;-69
2024/03/05 07:43:59;;;;;;;12.00;6.03;;;7.70;99.90;;;;;;5027070;28;20050;-70
2024/03/05 07:46:27;;;;;;;11.10;5.22;;;7.70;99.90;;;;;;5024835;28;20376;-70
2024/03/05 07:48:54;;;;;;;8.15;4.20;;;7.70;99.90;;;;;;5027504;28;20075;-70
2024/03/05 07:51:21;;;;;;;11.10;4.53;;;7.80;99.90;;;;;;5026666;28;20056;-70
2024/03/05 07:53:56;;;;;;;10.15;4.65;;;7.80;99.90;;;;;;5027107;28;20049;-70
2024/03/05 07:56:22;;;;;;;9.25;4.00;;;7.80;99.90;;;;;;5028728;28;20140;-67
2024/03/05 07:58:49;;;;;;;15.48;6.22;;;7.80;99.90;;;;;;5027863;28;20092;-66
2024/03/05 08:01:16;;;;;;;13.43;4.38;;;7.80;99.90;;;;;;5027728;28;20133;-69
2024/03/05 08:03:43;;;;;;;10.55;4.72;;;7.90;99.90;;;;;;5028106;28;20071;-71
2024/03/05 08:06:10;;;;;;;14.82;5.25;;;7.90;99.90;;;;;;5028163;28;20060;-68
2024/03/05 08:08:37;;;;;;;10.88;4.28;;;8.00;99.90;;;;;;5027886;28;20107;-69
2024/03/05 08:11:04;;;;;;;9.15;4.18;;;8.00;99.90;;;;;;5025270;28;20120;-70
2024/03/05 08:13:34;;;;;;;10.82;4.20;;;8.10;99.90;;;;;;5026608;28;20049;-70
2024/03/05 08:16:04;;;;;;;7.88;4.78;;;8.10;99.90;;;;;;5026240;28;20045;-71
2024/03/05 08:18:31;;;;;;;10.43;4.60;;;8.10;99.90;;;;;;5026641;28;20049;-70
2024/03/05 08:21:00;;;;;;;10.48;4.20;;;8.20;99.90;;;;;;5035186;28;20480;-70
2024/03/05 08:23:27;;;;;;;6.50;4.40;;;8.20;99.90;;;;;;5042288;28;20118;-70
2024/03/05 08:25:54;;;;;;;13.15;5.57;;;8.30;99.90;;;;;;5030105;28;20119;-70
2024/03/05 08:28:21;;;;;;;17.45;6.00;;;8.40;99.90;;;;;;5026810;28;20682;-74
2024/03/05 08:30:48;;;;;;;10.60;5.85;;;8.50;99.90;;;;;;5030871;28;20497;-71
2024/03/05 08:33:19;;;;;;;8.02;4.95;;;8.60;99.90;;;;;;5041640;28;20126;-71
2024/03/05 08:35:47;;;;;;;11.65;5.43;;;8.60;99.90;;;;;;5026994;28;20049;-71
2024/03/05 08:38:14;;;;;;;10.10;4.68;;;8.70;99.90;;;;;;5029855;28;20503;-71
2024/03/05 08:40:40;;;;;;;11.52;5.07;;;8.70;99.90;;;;;;5026254;28;20042;-70
2024/03/05 08:43:09;;;;;;;10.60;4.97;;;8.70;99.90;;;;;;5027052;28;20053;-70
2024/03/05 08:45:37;;;;;;;10.57;4.95;;;8.70;99.90;;;;;;5021794;28;20046;-70
2024/03/05 08:48:03;;;;;;;10.45;5.43;;;8.70;99.90;;;;;;5031507;28;20049;-69
2024/03/05 08:50:30;;;;;;;13.48;6.00;;;8.70;99.90;;;;;;5032184;28;20045;-69
2024/03/05 08:52:57;;;;;;;10.68;5.32;;;8.70;99.90;;;;;;5038317;28;20535;-70
2024/03/05 08:55:25;;;;;;;13.85;6.25;;;8.60;99.90;;;;;;5025341;28;20041;-70
2024/03/05 08:57:53;;;;;;;12.70;4.47;;;8.80;99.90;;;;;;5032895;28;20128;-68
2024/03/05 09:00:20;;;;;;;15.25;7.15;;;8.80;99.90;;;;;;5027004;28;20045;-70
2024/03/05 09:03:07;;;;;;;8.10;5.60;;;8.80;99.90;;;;;;5024505;28;20194;-69
2024/03/05 09:05:35;;;;;;;10.52;4.70;;;8.80;99.90;;;;;;5028137;28;20080;-68
2024/03/05 09:08:04;;;;;;;11.20;5.07;;;8.80;99.90;;;;;;5026452;28;20202;-69
2024/03/05 09:10:32;;;;;;;9.23;5.55;;;8.70;99.90;;;;;;5026035;28;20057;-68
2024/03/05 09:12:58;;;;;;;10.57;4.70;;;8.70;99.90;;;;;;5031149;28;20091;-68
2024/03/05 09:15:25;;;;;;;8.85;4.85;;;8.80;99.90;;;;;;5025652;28;20046;-69
2024/03/05 09:17:52;;;;;;;12.20;5.55;;;8.90;99.90;;;;;;5021605;28;20136;-69
2024/03/05 09:20:19;;;;;;;6.85;4.32;;;8.90;99.90;;;;;;5021188;28;20042;-68
2024/03/05 09:22:46;;;;;;;13.30;5.57;;;8.90;99.90;;;;;;5026517;28;20543;-69
2024/03/05 09:25:15;;;;;;;10.88;4.82;;;8.90;99.90;;;;;;5021642;28;20453;-68
2024/03/05 09:27:47;;;;;;;11.75;4.55;;;9.00;99.90;;;;;;5024858;28;20103;-68
2024/03/05 09:30:14;;;;;;;11.82;5.18;;;9.10;99.90;;;;;;5019998;28;20562;-68
2024/03/05 09:32:43;;;;;;;12.10;5.15;;;9.20;99.90;;;;;;5025065;28;20042;-68
2024/03/05 09:35:12;;;;;;;13.55;5.10;;;9.20;99.90;;;;;;5025193;28;20115;-69
2024/03/05 09:37:40;;;;;;;13.50;4.90;;;9.20;99.90;;;;;;5023811;28;20049;-69
2024/03/05 09:40:15;;;;;;;12.80;6.30;;;9.20;99.90;;;;;;5022790;28;20073;-69
2024/03/05 09:42:45;;;;;;;9.32;4.35;;;9.20;99.90;;;;;;5024627;28;20055;-69
2024/03/05 09:45:14;;;;;;;8.40;4.63;;;9.30;99.90;;;;;;5025410;28;20060;-67
2024/03/05 09:47:42;;;;;;;8.43;4.80;;;9.20;99.90;;;;;;5025961;28;20057;-69
2024/03/05 09:50:11;;;;;;;7.53;4.03;;;9.30;99.90;;;;;;5023850;28;20128;-68
2024/03/05 09:52:38;;;;;;;16.83;4.57;;;9.40;99.90;;;;;;5025841;28;20049;-69
2024/03/05 09:55:06;;;;;;;9.73;4.38;;;9.40;99.90;;;;;;5023114;28;20376;-69
2024/03/05 09:57:34;;;;;;;7.03;3.40;;;9.40;99.90;;;;;;5026384;28;20049;-69
2024/03/05 10:00:01;;;;;;;7.85;3.60;;;9.60;99.90;;;;;;5026536;28;20511;-68
2024/03/05 10:02:28;;;;;;;6.22;2.95;;;9.60;99.90;;;;;;5025801;28;20048;-70
2024/03/05 10:04:57;;;;;;;5.47;3.08;;;9.70;99.90;;;;;;5024545;28;20056;-71
2024/03/05 10:07:27;;;;;;;6.55;2.50;;;9.80;99.90;;;;;;5025036;28;20037;-69
2024/03/05 10:10:09;;;;;;;7.18;2.40;;;9.90;99.90;;;;;;5024548;28;20119;-70
2024/03/05 10:12:39;;;;;;;3.75;2.15;;;9.90;99.90;;;;;;5023626;28;20387;-69
2024/03/05 10:15:22;;;;;;;5.70;2.58;;;10.00;99.90;;;;;;5026466;28;20056;-69
2024/03/05 10:17:52;;;;;;;4.50;2.30;;;10.20;99.90;;;;;;5022429;28;20046;-70
2024/03/05 10:20:25;;;;;;;7.20;2.78;;;10.20;99.90;;;;;;5022866;28;20063;-70
2024/03/05 10:22:52;;;;;;;8.23;2.65;;;10.20;99.90;;;;;;5024635;28;20045;-69
2024/03/05 10:25:20;;;;;;;8.55;2.90;;;10.20;99.90;;;;;;5023862;28;20102;-69
2024/03/05 10:27:50;;;;;;;5.43;2.00;;;10.20;99.90;;;;;;5017187;28;20046;-68
2024/03/05 10:30:24;;;;;;;3.83;1.70;;;10.10;99.90;;;;;;5020024;28;20053;-69
2024/03/05 10:32:59;;;;;;;3.05;2.00;;;10.00;99.90;;;;;;5023594;28;20041;-68
2024/03/05 10:35:26;;;;;;;5.07;2.17;;;10.00;99.90;;;;;;5024005;28;20049;-68
2024/03/05 10:37:57;;;;;;;6.03;1.88;;;10.00;99.90;;;;;;5024107;28;20120;-68
2024/03/05 10:40:27;;;;;;;4.03;2.33;;;10.00;99.90;;;;;;5023288;28;20050;-70
2024/03/05 10:42:54;;;;;;;2.55;1.55;;;10.00;99.90;;;;;;5022165;28;20080;-69
2024/03/05 10:45:26;;;;;;;5.43;1.40;;;10.00;99.90;;;;;;5023448;28;20546;-69
2024/03/05 10:47:53;;;;;;;6.45;2.35;;;9.90;99.90;;;;;;5025607;28;20131;-68
2024/03/05 10:50:20;;;;;;;8.88;3.75;;;9.90;99.90;;;;;;5025014;28;20084;-69
2024/03/05 10:52:48;;;;;;;5.55;2.47;;;10.00;99.90;;;;;;5018042;28;20046;-69
2024/03/05 10:55:17;;;;;;;6.43;2.75;;;10.00;99.90;;;;;;5020379;28;20077;-69
2024/03/05 11:00:35;;;;;;;7.15;3.63;;;10.10;99.90;;;;;;5005597;28;20045;-68
2024/03/05 11:03:08;;;;;;;9.88;5.15;;;10.10;99.90;;;;;;5026217;28;20166;-69
2024/03/05 11:05:56;;;;;;;11.32;5.38;;;10.10;99.90;;;;;;5028477;28;20261;-69
2024/03/05 11:08:26;;;;;;;15.45;7.70;;;10.10;99.90;;;;;;5023348;28;20049;-69
2024/03/05 11:10:55;;;;;;;17.42;8.70;;;10.10;99.90;;;;;;5026542;28;20492;-68
2024/03/05 11:13:21;;;;;;;16.63;9.88;;;10.10;99.90;;;;;;5028522;28;20110;-68
2024/03/05 11:15:52;;;;;;;24.75;11.32;;;10.10;99.90;;;;;;5026634;28;20046;-67
2024/03/05 11:18:29;;;;;;;23.02;13.02;;;10.10;99.90;;;;;;5026627;28;20060;-67
2024/03/05 11:20:56;;;;;;;17.60;10.43;;;10.20;99.90;;;;;;5028559;28;20042;-69
2024/03/05 11:23:26;;;;;;;31.40;13.18;;;10.30;99.90;;;;;;5027390;28;20056;-68
2024/03/05 11:25:53;;;;;;;21.20;10.88;;;10.30;99.90;;;;;;5027083;28;20049;-68
2024/03/05 11:28:20;;;;;;;17.50;9.32;;;10.30;99.90;;;;;;5026869;28;20092;-68
2024/03/05 11:30:47;;;;;;;12.23;7.25;;;10.20;99.90;;;;;;5026220;28;20087;-70
2024/03/05 11:33:19;;;;;;;14.98;5.72;;;10.10;99.90;;;;;;5027214;28;20472;-67
2024/03/05 11:35:46;;;;;;;13.98;4.32;;;9.90;99.90;;;;;;5028019;28;20464;-68
2024/03/05 11:38:13;;;;;;;7.38;3.40;;;9.70;99.90;;;;;;5018896;28;20048;-68
2024/03/05 11:40:42;;;;;;;10.20;3.60;;;9.60;99.90;;;;;;5025196;28;20053;-67
2024/03/05 11:43:09;;;;;;;6.75;2.50;;;9.60;99.90;;;;;;5021615;28;20046;-68
2024/03/05 11:45:49;;;;;;;8.32;3.67;;;9.50;99.90;;;;;;5026520;28;20062;-68
2024/03/05 11:48:18;;;;;;;8.48;3.58;;;9.60;99.90;;;;;;5029341;28;20051;-68
2024/03/05 11:50:52;;;;;;;9.45;5.45;;;9.60;99.90;;;;;;5026600;28;20428;-68
2024/03/05 11:53:19;;;;;;;;;;;9.70;99.90;;;;;;5017388;28;20650;-68
2024/03/05 11:55:51;;;;;;;8.75;4.80;;;9.60;99.90;;;;;;5026264;28;19921;-69
2024/03/05 11:58:24;;;;;;;14.82;6.05;;;9.70;99.90;;;;;;5026527;28;20045;-68
2024/03/05 12:01:02;;;;;;;19.73;7.57;;;9.70;99.90;;;;;;5026654;28;20045;-69
2024/03/05 12:03:29;;;;;;;14.55;7.88;;;9.70;99.90;;;;;;5024498;28;20131;-68
2024/03/05 12:05:56;;;;;;;19.08;7.70;;;9.80;99.90;;;;;;5026776;28;20443;-68
2024/03/05 12:08:25;;;;;;;15.60;7.22;;;9.80;99.90;;;;;;5026900;28;20146;-69
2024/03/05 12:11:00;;;;;;;12.48;7.68;;;9.80;99.90;;;;;;5024731;28;20046;-69
2024/03/05 12:13:27;;;;;;;20.10;9.32;;;9.80;99.90;;;;;;5024908;28;20064;-69
2024/03/05 12:15:54;;;;;;;18.35;8.55;;;9.90;99.90;;;;;;5027073;28;20033;-69
2024/03/05 12:18:20;;;;;;;18.00;9.15;;;9.90;99.90;;;;;;5026996;28;20099;-68
2024/03/05 12:20:47;;;;;;;16.95;8.48;;;9.90;99.90;;;;;;5026395;28;20405;-68
2024/03/05 12:23:14;;;;;;;19.98;7.95;;;9.90;99.90;;;;;;5027545;28;20049;-70
2024/03/05 12:26:02;;;;;;;13.02;6.43;;;9.90;99.90;;;;;;5026987;28;20045;-68
2024/03/05 12:28:31;;;;;;;14.30;6.65;;;9.90;99.90;;;;;;5027303;28;20054;-68
2024/03/05 12:30:58;;;;;;;13.00;7.00;;;10.00;99.90;;;;;;5042523;28;20437;-69
2024/03/05 12:33:30;;;;;;;14.43;6.70;;;10.00;99.90;;;;;;5028629;28;20504;-68
2024/03/05 12:35:58;;;;;;;12.82;6.22;;;10.00;99.90;;;;;;5027405;28;20430;-68
2024/03/05 12:38:25;;;;;;;13.48;6.88;;;10.00;99.90;;;;;;5027093;28;20068;-69
2024/03/05 12:40:59;;;;;;;14.40;7.10;;;10.10;99.90;;;;;;5025210;28;20111;-68
2024/03/05 12:43:29;;;;;;;;;;;10.20;99.90;;;;;;5028932;28;20045;-68
2024/03/05 12:46:03;;;;;;;15.98;5.25;;;10.20;99.90;;;;;;5027824;28;19967;-69
2024/03/05 12:48:31;;;;;;;10.05;3.70;;;10.20;99.90;;;;;;5024072;28;20084;-69
2024/03/05 12:51:03;;;;;;;8.07;4.82;;;10.30;99.90;;;;;;5024363;28;20049;-68
2024/03/05 12:53:30;;;;;;;9.50;5.15;;;10.30;99.90;;;;;;5027573;28;20115;-69
2024/03/05 12:56:01;;;;;;;5.75;3.90;;;10.40;99.90;;;;;;5020775;28;20544;-68
2024/03/05 12:58:40;;;;;;;9.05;3.80;;;10.40;99.90;;;;;;5018228;28;20497;-68
2024/03/05 13:01:10;;;;;;;7.60;3.35;;;10.50;99.90;;;;;;5024192;28;20049;-68
2024/03/05 13:03:37;;;;;;;11.40;4.43;;;10.50;99.90;;;;;;5045503;28;20057;-69